^^
Station Historical Data
Daily Summary for March 17, 2017 Units:  English    Metric   Both
« Previous Day
Next Day »
Daily Weekly Monthly Yearly Custom
  High: Low: Average:
Temperature: 46.0 °F 26.1 °F 35.5 °F
Dew Point: 20.1 °F 14.6 °F 17.4 °F
Humidity: 71% 28% 50%
Wind Speed: 6.0mph 0.0mph 1.5mph
Wind Gust: 16.0mph - -
Wind- - WSW
Pressure: 30.29 in 30.13 in -
Precipitation: 0.00 in    
Historical Graphs
 
 
Tabular Data for March 17, 2017
Time Temperature Dew Point Pressure Wind Wind Speed Wind Gust Humidity Rainfall Rate (Hourly) Conditions
00:00 30.2 °F 15.1 °F 30.13 in Calm   7.0 mph 53% 0.00 in RA
00:15 30.0 °F 15.8 °F 30.14 in WNW 1.0 mph 6.0 mph 55% 0.00 in CLR
00:30 29.9 °F 16.1 °F 30.14 in Calm   7.0 mph 56% 0.00 in CLR
00:45 30.0 °F 15.8 °F 30.14 in SW 2.0 mph 5.0 mph 55% 0.00 in CLR
01:00 30.0 °F 15.8 °F 30.15 in South 2.0 mph 10.0 mph 55% 0.00 in CLR
02:15 29.9 °F 16.5 °F 30.16 in SW 5.0 mph 12.0 mph 57% 0.00 in CLR
02:30 29.8 °F 16.8 °F 30.16 in WSW 2.0 mph 13.0 mph 58% 0.00 in CLR
02:45 29.5 °F 17.3 °F 30.16 in Calm   9.0 mph 60% 0.00 in CLR
03:00 29.3 °F 17.5 °F 30.17 in SW 2.0 mph 12.0 mph 61% 0.00 in CLR
03:15 29.0 °F 18.0 °F 30.17 in SW 2.0 mph 6.0 mph 63% 0.00 in CLR
03:30 29.2 °F 18.2 °F 30.17 in WSW 2.0 mph 13.0 mph 63% 0.00 in CLR
03:45 29.1 °F 18.4 °F 30.17 in SSW 1.0 mph 12.0 mph 64% 0.00 in CLR
04:00 28.9 °F 18.3 °F 30.17 in SSW 1.0 mph 8.0 mph 64% 0.00 in CLR
04:15 28.9 °F 18.6 °F 30.18 in South 2.0 mph 8.0 mph 65% 0.00 in CLR
04:30 28.9 °F 18.2 °F 30.18 in SW 3.0 mph 10.0 mph 64% 0.00 in CLR
04:45 28.9 °F 18.6 °F 30.19 in SSW 2.0 mph 10.0 mph 65% 0.00 in CLR
05:00 28.8 °F 18.5 °F 30.19 in WSW 2.0 mph 12.0 mph 65% 0.00 in CLR
05:15 28.4 °F 18.1 °F 30.20 in WSW 3.0 mph 12.0 mph 65% 0.00 in CLR
05:30 28.2 °F 18.3 °F 30.20 in SW 2.0 mph 12.0 mph 66% 0.00 in CLR
05:45 28.0 °F 18.5 °F 30.21 in SW 1.0 mph 9.0 mph 67% 0.00 in CLR
06:00 27.7 °F 18.5 °F 30.21 in Calm   7.0 mph 68% 0.00 in CLR
06:15 27.5 °F 18.3 °F 30.22 in SW 1.0 mph 7.0 mph 68% 0.00 in CLR
06:30 27.4 °F 18.2 °F 30.23 in WSW 2.0 mph 8.0 mph 68% 0.00 in CLR
06:45 26.9 °F 18.1 °F 30.23 in SW 1.0 mph 7.0 mph 69% 0.00 in CLR
07:00 26.4 °F 17.9 °F 30.24 in SW 2.0 mph 6.0 mph 70% 0.00 in CLR
07:15 26.3 °F 17.8 °F 30.24 in SW 1.0 mph 6.0 mph 70% 0.00 in CLR
07:30 26.3 °F 17.8 °F 30.25 in SW 1.0 mph 8.0 mph 70% 0.00 in CLR
07:45 26.1 °F 18.0 °F 30.26 in WSW 1.0 mph 12.0 mph 71% 0.00 in CLR
08:00 26.2 °F 17.7 °F 30.26 in WSW 1.0 mph 7.0 mph 70% 0.00 in CLR
08:15 26.4 °F 18.3 °F 30.27 in SW 2.0 mph 6.0 mph 71% 0.00 in CLR
08:30 27.3 °F 18.8 °F 30.27 in WSW 2.0 mph 10.0 mph 70% 0.00 in CLR
08:45 28.2 °F 18.6 °F 30.28 in WSW 2.0 mph 9.0 mph 67% 0.00 in CLR
09:00 28.9 °F 18.6 °F 30.28 in SW 1.0 mph 10.0 mph 65% 0.00 in CLR
09:15 30.1 °F 19.0 °F 30.28 in WSW 1.0 mph 8.0 mph 63% 0.00 in CLR
09:30 31.0 °F 19.5 °F 30.28 in WSW 1.0 mph 12.0 mph 62% 0.00 in CLR
09:45 32.0 °F 19.6 °F 30.29 in WSW 3.0 mph 12.0 mph 60% 0.00 in CLR
10:00 32.8 °F 19.7 °F 30.28 in SW 3.0 mph 12.0 mph 58% 0.00 in CLR
10:15 33.5 °F 19.9 °F 30.28 in WSW 2.0 mph 13.0 mph 57% 0.00 in CLR
10:30 34.2 °F 19.7 °F 30.28 in West 2.0 mph 12.0 mph 55% 0.00 in CLR
10:45 35.1 °F 20.1 °F 30.28 in Calm   10.0 mph 54% 0.00 in CLR
11:00 35.6 °F 18.3 °F 30.28 in WSW 3.0 mph 12.0 mph 49% 0.00 in CLR
11:15 35.8 °F 18.0 °F 30.28 in WSW 2.0 mph 15.0 mph 48% 0.00 in CLR
11:30 36.7 °F 18.4 °F 30.27 in WSW 1.0 mph 12.0 mph 47% 0.00 in CLR
11:45 37.0 °F 17.6 °F 30.27 in ENE 3.0 mph 12.0 mph 45% 0.00 in CLR
12:00 37.1 °F 17.2 °F 30.26 in WSW 2.0 mph 16.0 mph 44% 0.00 in CLR
12:15 37.5 °F 17.0 °F 30.26 in North 5.0 mph 12.0 mph 43% 0.00 in CLR
12:30 38.3 °F 17.2 °F 30.25 in SW 6.0 mph 12.0 mph 42% 0.00 in CLR
12:45 39.2 °F 17.4 °F 30.25 in WNW 3.0 mph 8.0 mph 41% 0.00 in CLR
13:00 39.7 °F 18.5 °F 30.24 in WNW 1.0 mph 12.0 mph 42% 0.00 in CLR
13:15 40.2 °F 17.8 °F 30.24 in West 2.0 mph 15.0 mph 40% 0.00 in CLR
13:30 40.6 °F 17.0 °F 30.24 in West 2.0 mph 12.0 mph 38% 0.00 in CLR
13:45 41.6 °F 17.2 °F 30.24 in WSW 5.0 mph 12.0 mph 37% 0.00 in CLR
14:00 42.1 °F 16.4 °F 30.23 in West 2.0 mph 12.0 mph 35% 0.00 in CLR
14:15 42.2 °F 15.8 °F 30.22 in West 3.0 mph 10.0 mph 34% 0.00 in CLR
14:30 42.8 °F 17.0 °F 30.21 in West 3.0 mph 10.0 mph 35% 0.00 in CLR
14:45 43.2 °F 16.6 °F 30.20 in WSW 3.0 mph 16.0 mph 34% 0.00 in CLR
15:00 43.4 °F 16.2 °F 30.20 in West 2.0 mph 13.0 mph 33% 0.00 in CLR
15:15 43.5 °F 17.0 °F 30.19 in NW 1.0 mph 10.0 mph 34% 0.00 in CLR
15:30 43.5 °F 16.3 °F 30.19 in North 2.0 mph 12.0 mph 33% 0.00 in CLR
15:45 44.4 °F 17.7 °F 30.19 in Calm   12.0 mph 34% 0.00 in CLR
16:00 45.1 °F 16.9 °F 30.19 in SE 1.0 mph 9.0 mph 32% 0.00 in CLR
16:15 44.5 °F 15.7 °F 30.19 in West 2.0 mph 12.0 mph 31% 0.00 in CLR
16:30 44.8 °F 15.9 °F 30.19 in Calm   6.0 mph 31% 0.00 in CLR
16:45 44.7 °F 15.1 °F 30.18 in WSW 5.0 mph 12.0 mph 30% 0.00 in CLR
17:00 45.9 °F 16.9 °F 30.18 in SW 1.0 mph 9.0 mph 31% 0.00 in CLR
17:15 45.7 °F 16.0 °F 30.18 in SSW 1.0 mph 6.0 mph 30% 0.00 in CLR
17:30 45.7 °F 15.2 °F 30.18 in West 2.0 mph 6.0 mph 29% 0.00 in CLR
17:45 45.6 °F 15.1 °F 30.18 in WSW 1.0 mph 8.0 mph 29% 0.00 in CLR
18:00 46.0 °F 14.7 °F 30.18 in West 1.0 mph 9.0 mph 28% 0.00 in CLR
18:15 45.6 °F 15.9 °F 30.19 in WSW 1.0 mph 10.0 mph 30% 0.00 in CLR
18:30 45.1 °F 15.5 °F 30.19 in WSW 1.0 mph 6.0 mph 30% 0.00 in CLR
18:45 43.2 °F 14.6 °F 30.19 in WSW 2.0 mph 7.0 mph 31% 0.00 in CLR
19:00 42.5 °F 15.4 °F 30.19 in SSW 1.0 mph 6.0 mph 33% 0.00 in CLR
19:15 41.7 °F 16.1 °F 30.20 in Calm   6.0 mph 35% 0.00 in CLR
19:30 41.0 °F 16.7 °F 30.20 in SW 1.0 mph 4.0 mph 37% 0.00 in CLR
19:45 40.4 °F 17.4 °F 30.21 in SSW 1.0 mph 4.0 mph 39% 0.00 in CLR
20:00 39.7 °F 16.7 °F 30.21 in Calm   2.0 mph 39% 0.00 in CLR
20:15 39.8 °F 17.4 °F 30.21 in Calm   3.0 mph 40% 0.00 in CLR
20:30 39.4 °F 17.6 °F 30.22 in Calm   2.0 mph 41% 0.00 in CLR
20:45 38.8 °F 17.1 °F 30.22 in Calm   1.0 mph 41% 0.00 in CLR
21:00 37.6 °F 19.1 °F 30.23 in Calm     47% 0.00 in CLR
21:15 37.0 °F 17.0 °F 30.23 in Calm   2.0 mph 44% 0.00 in CLR
21:30 36.6 °F 17.2 °F 30.24 in Calm   1.0 mph 45% 0.00 in CLR
21:45 35.6 °F 19.2 °F 30.24 in Calm   1.0 mph 51% 0.00 in CLR
22:00 36.0 °F 17.2 °F 30.24 in Calm   1.0 mph 46% 0.00 in CLR
22:15 35.5 °F 17.2 °F 30.24 in Calm   1.0 mph 47% 0.00 in CLR
22:30 35.0 °F 17.7 °F 30.25 in Calm   1.0 mph 49% 0.00 in CLR
22:45 35.3 °F 17.5 °F 30.25 in Calm   2.0 mph 48% 0.00 in CLR
23:15 34.4 °F 17.7 °F 30.25 in Calm   2.0 mph 50% 0.00 in CLR
23:30 34.7 °F 17.0 °F 30.25 in Calm   2.0 mph 48% 0.00 in CLR
23:45 34.6 °F 17.8 °F 30.26 in Calm   2.0 mph 50% 0.00 in CLR
TarryTown NY Weather
Compliments of Weather Underground - 1.5 mb